createdAt,value
2019-05-01T00:04:11.065Z,63.47
2019-05-01T00:06:40.847Z,63.17
2019-05-01T00:09:08.299Z,63.16
2019-05-01T00:11:35.743Z,63.06
2019-05-01T00:14:03.188Z,63.77
2019-05-01T00:16:30.676Z,63.99
2019-05-01T00:18:58.284Z,64.27
2019-05-01T00:21:25.736Z,64.01
2019-05-01T00:23:53.192Z,63.96
2019-05-01T00:26:20.642Z,64.85
2019-05-01T00:28:48.150Z,65.53
2019-05-01T00:31:15.603Z,65.64
2019-05-01T00:33:43.080Z,65.68
2019-05-01T00:36:10.518Z,66.02
2019-05-01T00:38:37.966Z,65.90
2019-05-01T00:41:05.514Z,65.96
2019-05-01T00:43:33.017Z,65.87
2019-05-01T00:46:00.478Z,65.90
2019-05-01T00:48:27.931Z,66.03
2019-05-01T00:50:55.371Z,66.05
2019-05-01T00:53:22.814Z,65.82
2019-05-01T00:55:50.705Z,65.69
2019-05-01T00:58:21.171Z,65.69
2019-05-01T01:00:48.634Z,65.72
2019-05-01T01:03:16.086Z,66.21
2019-05-01T01:05:43.600Z,66.17
2019-05-01T01:08:11.051Z,66.32
2019-05-01T01:10:38.544Z,66.69
2019-05-01T01:13:06.023Z,66.54
2019-05-01T01:15:33.487Z,66.55
2019-05-01T01:18:00.942Z,66.72
2019-05-01T01:20:28.383Z,66.84
2019-05-01T01:22:55.838Z,66.86
2019-05-01T01:25:23.328Z,66.83
2019-05-01T01:27:50.782Z,67.00
2019-05-01T01:30:18.243Z,66.98
2019-05-01T01:32:45.714Z,66.91
2019-05-01T01:35:13.194Z,66.80
2019-05-01T01:37:40.644Z,66.96
2019-05-01T01:40:08.167Z,66.89
2019-05-01T01:42:35.616Z,66.82
2019-05-01T01:45:06.557Z,66.78
2019-05-01T01:47:34.028Z,66.86
2019-05-01T01:50:01.588Z,67.04
2019-05-01T01:52:29.334Z,66.90
2019-05-01T01:54:56.928Z,67.05
2019-05-01T01:57:24.367Z,66.85
2019-05-01T01:59:51.856Z,66.91
2019-05-01T02:02:24.955Z,67.23
2019-05-01T02:05:06.918Z,67.70
2019-05-01T02:07:34.363Z,68.18
2019-05-01T02:10:01.818Z,68.16
2019-05-01T02:12:29.267Z,68.45
2019-05-01T02:14:56.712Z,68.40
2019-05-01T02:17:24.188Z,68.46
2019-05-01T02:19:51.634Z,68.87
2019-05-01T02:22:19.080Z,68.79
2019-05-01T02:24:46.095Z,68.91
2019-05-01T02:27:16.617Z,68.90
2019-05-01T02:29:44.076Z,68.96
2019-05-01T02:32:11.540Z,68.98
2019-05-01T02:34:38.992Z,69.02
2019-05-01T02:37:05.979Z,69.30
2019-05-01T02:39:33.423Z,69.57
2019-05-01T02:42:00.427Z,69.47
2019-05-01T02:44:27.419Z,69.45
2019-05-01T02:46:54.449Z,69.56
2019-05-01T02:49:21.445Z,69.35
2019-05-01T02:51:48.488Z,69.35
2019-05-01T02:54:15.468Z,69.51
2019-05-01T02:56:44.071Z,69.37
2019-05-01T02:59:11.067Z,69.39
2019-05-01T03:01:46.950Z,69.57
2019-05-01T03:04:05.194Z,69.67
2019-05-01T03:06:32.216Z,69.93
2019-05-01T03:08:59.248Z,70.12
2019-05-01T03:11:26.248Z,70.16
2019-05-01T03:13:53.251Z,70.15
2019-05-01T03:16:20.251Z,69.85
2019-05-01T03:18:48.847Z,70.20
2019-05-01T03:21:23.517Z,70.32
2019-05-01T03:24:00.476Z,70.00
2019-05-01T03:26:27.464Z,70.00
2019-05-01T03:28:54.459Z,70.07
2019-05-01T03:31:21.472Z,70.02
2019-05-01T03:33:48.515Z,70.20
2019-05-01T03:36:15.509Z,69.90
2019-05-01T03:38:42.499Z,69.79
2019-05-01T03:41:09.509Z,69.91
2019-05-01T03:43:36.510Z,70.20
2019-05-01T03:46:03.590Z,70.02
2019-05-01T03:48:30.603Z,70.24
2019-05-01T03:50:57.599Z,70.45
2019-05-01T03:53:25.155Z,70.66
2019-05-01T03:55:52.692Z,70.51
2019-05-01T03:58:20.201Z,70.42
2019-05-01T04:00:50.315Z,70.47
2019-05-01T04:03:32.669Z,70.51
2019-05-01T04:06:00.112Z,70.46
2019-05-01T04:08:27.559Z,70.67
2019-05-01T04:10:55.005Z,70.73
2019-05-01T04:13:22.465Z,70.73
2019-05-01T04:15:49.939Z,70.82
2019-05-01T04:18:17.394Z,70.88
2019-05-01T04:20:44.832Z,70.82
2019-05-01T04:23:12.282Z,70.66
2019-05-01T04:25:39.739Z,70.52
2019-05-01T04:31:05.057Z,69.62
2019-05-01T04:33:32.567Z,69.70
2019-05-01T04:36:02.097Z,70.09
2019-05-01T04:38:29.562Z,70.10
2019-05-01T04:40:57.018Z,69.96
2019-05-01T04:43:24.463Z,69.82
2019-05-01T04:45:51.916Z,70.06
2019-05-01T04:48:19.512Z,69.73
2019-05-01T04:50:46.970Z,69.84
2019-05-01T04:53:14.457Z,70.14
2019-05-01T04:55:41.925Z,69.87
2019-05-01T04:58:09.374Z,70.04
2019-05-01T05:00:36.828Z,70.48
2019-05-01T05:03:06.865Z,70.01
2019-05-01T05:05:34.311Z,70.14
2019-05-01T05:08:01.769Z,70.19
2019-05-01T05:10:29.240Z,69.59
2019-05-01T05:12:56.700Z,69.23
2019-05-01T05:15:34.253Z,69.12
2019-05-01T05:18:02.209Z,69.33
2019-05-01T05:20:29.653Z,69.29
2019-05-01T05:22:57.106Z,68.96
2019-05-01T05:25:24.592Z,68.58
2019-05-01T05:27:52.039Z,68.25
2019-05-01T05:30:19.503Z,67.78
2019-05-01T05:32:46.954Z,67.56
2019-05-01T05:35:14.396Z,67.30
2019-05-01T05:40:34.895Z,66.78
2019-05-01T05:43:02.371Z,66.14
2019-05-01T05:45:29.821Z,65.80
2019-05-01T05:47:57.279Z,65.81
2019-05-01T05:50:27.540Z,65.63
2019-05-01T05:52:58.609Z,65.08
2019-05-01T05:55:31.592Z,65.11
2019-05-01T05:57:59.047Z,65.19
2019-05-01T06:00:28.218Z,65.21
2019-05-01T06:02:56.650Z,65.04
2019-05-01T06:08:16.834Z,63.87
2019-05-01T06:10:44.290Z,63.76
2019-05-01T06:13:18.003Z,63.87
2019-05-01T06:15:50.594Z,63.82
2019-05-01T06:18:19.497Z,64.02
2019-05-01T06:20:46.987Z,63.62
2019-05-01T06:23:15.666Z,63.11
2019-05-01T06:25:43.456Z,63.11
2019-05-01T06:28:10.931Z,63.12
2019-05-01T06:30:41.998Z,62.95
2019-05-01T06:33:09.325Z,62.82
2019-05-01T06:35:33.983Z,62.72
2019-05-01T06:38:02.314Z,62.36
2019-05-01T06:40:34.281Z,62.37
2019-05-01T06:43:01.784Z,62.09
2019-05-01T06:45:29.339Z,61.98
2019-05-01T06:47:57.263Z,61.75
2019-05-01T06:50:28.130Z,61.50
2019-05-01T06:52:55.586Z,61.55
2019-05-01T06:55:27.181Z,61.56
2019-05-01T06:57:52.590Z,61.55
2019-05-01T07:00:20.112Z,60.88
2019-05-01T07:02:47.560Z,60.43
2019-05-01T07:05:16.502Z,60.42
2019-05-01T07:07:43.233Z,60.07
2019-05-01T07:10:10.568Z,59.23
2019-05-01T07:12:38.073Z,59.45
2019-05-01T07:15:05.534Z,59.63
2019-05-01T07:17:33.117Z,59.32
2019-05-01T07:20:01.155Z,59.00
2019-05-01T07:22:28.667Z,58.48
2019-05-01T07:24:59.020Z,57.82
2019-05-01T07:27:25.094Z,57.59
2019-05-01T07:29:51.239Z,57.12
2019-05-01T07:32:18.720Z,57.34
2019-05-01T07:34:48.879Z,56.92
2019-05-01T07:37:13.860Z,56.98
2019-05-01T07:39:44.806Z,57.18
2019-05-01T07:42:14.313Z,57.71
2019-05-01T07:44:41.787Z,58.22
2019-05-01T07:47:14.902Z,58.11
2019-05-01T07:49:53.154Z,58.26
2019-05-01T07:52:19.998Z,58.05
2019-05-01T07:54:47.450Z,57.57
2019-05-01T07:57:14.920Z,57.01
2019-05-01T07:59:42.416Z,57.19
2019-05-01T08:02:10.020Z,57.12
2019-05-01T08:04:37.546Z,56.76
2019-05-01T08:07:05.047Z,56.44
2019-05-01T08:09:32.506Z,56.22
2019-05-01T08:11:59.969Z,55.92
2019-05-01T08:14:27.427Z,55.98
2019-05-01T08:16:54.978Z,55.67
2019-05-01T08:19:25.135Z,55.29
2019-05-01T08:22:08.231Z,55.10
2019-05-01T08:24:35.734Z,54.91
2019-05-01T08:27:03.195Z,54.83
2019-05-01T08:29:36.978Z,54.44
2019-05-01T08:32:07.726Z,54.11
2019-05-01T08:34:47.856Z,53.68
2019-05-01T08:37:02.761Z,53.42
2019-05-01T08:39:30.218Z,52.80
2019-05-01T08:41:57.676Z,52.69
2019-05-01T08:44:29.564Z,52.13
2019-05-01T08:46:59.283Z,51.64
2019-05-01T08:49:26.770Z,51.48
2019-05-01T08:51:54.226Z,51.45
2019-05-01T08:54:21.691Z,51.50
2019-05-01T08:56:53.133Z,51.45
2019-05-01T08:59:19.333Z,50.83
2019-05-01T09:01:45.869Z,50.75
2019-05-01T09:04:13.089Z,50.40
2019-05-01T09:06:43.425Z,50.43
2019-05-01T09:09:08.240Z,50.33
2019-05-01T09:11:36.200Z,49.89
2019-05-01T09:14:01.649Z,50.02
2019-05-01T09:16:30.246Z,50.23
2019-05-01T09:18:56.604Z,49.88
2019-05-01T09:21:24.055Z,49.34
2019-05-01T09:23:53.156Z,49.09
2019-05-01T09:26:31.335Z,48.92
2019-05-01T09:28:59.260Z,49.01
2019-05-01T09:31:26.747Z,48.78
2019-05-01T09:33:54.215Z,48.35
2019-05-01T09:36:21.666Z,48.08
2019-05-01T09:38:50.083Z,47.79
2019-05-01T09:41:16.675Z,47.60
2019-05-01T09:43:44.151Z,47.45
2019-05-01T09:46:11.619Z,47.18
2019-05-01T09:48:39.321Z,47.05
2019-05-01T09:51:08.173Z,46.89
2019-05-01T09:53:36.024Z,46.80
2019-05-01T09:56:07.696Z,46.48
2019-05-01T09:58:31.098Z,46.84
2019-05-01T10:00:58.568Z,48.30
2019-05-01T10:03:25.566Z,48.96
2019-05-01T10:05:52.585Z,48.69
2019-05-01T10:08:19.587Z,48.40
2019-05-01T10:10:46.601Z,48.01
2019-05-01T10:13:13.702Z,47.94
2019-05-01T10:15:40.841Z,47.44
2019-05-01T10:18:08.291Z,46.51
2019-05-01T10:20:35.750Z,45.89
2019-05-01T10:23:02.816Z,45.91
2019-05-01T10:25:29.804Z,45.36
2019-05-01T10:28:12.740Z,44.54
2019-05-01T10:30:40.609Z,44.20
2019-05-01T10:33:07.625Z,43.66
2019-05-01T10:35:42.612Z,43.23
2019-05-01T10:38:04.716Z,42.85
2019-05-01T10:40:32.378Z,42.77
2019-05-01T10:42:55.736Z,42.88
2019-05-01T10:45:23.036Z,42.60
2019-05-01T10:47:50.086Z,42.09
2019-05-01T10:50:17.104Z,41.81
2019-05-01T10:52:44.097Z,41.42
2019-05-01T10:55:11.119Z,41.06
2019-05-01T10:57:40.229Z,40.69
2019-05-01T11:00:06.743Z,40.34
2019-05-01T11:02:34.262Z,39.95
2019-05-01T11:05:01.971Z,39.66
2019-05-01T11:07:29.524Z,39.29
2019-05-01T11:09:56.623Z,39.25
2019-05-01T11:12:23.660Z,39.15
2019-05-01T11:14:51.110Z,38.80
2019-05-01T11:17:18.558Z,38.23
2019-05-01T11:19:46.014Z,37.98
2019-05-01T11:22:13.563Z,37.47
2019-05-01T11:24:41.085Z,37.09
2019-05-01T11:27:08.550Z,37.03
2019-05-01T11:29:35.998Z,36.87
2019-05-01T11:32:08.959Z,36.60
2019-05-01T11:34:42.178Z,36.07
2019-05-01T11:40:07.475Z,34.37
2019-05-01T11:42:34.952Z,34.54
2019-05-01T11:45:01.956Z,34.32
2019-05-01T11:47:29.013Z,33.12
2019-05-01T11:49:56.482Z,32.85
2019-05-01T11:52:23.974Z,32.55
2019-05-01T11:54:51.502Z,32.73
2019-05-01T11:57:18.953Z,32.58
2019-05-01T11:59:46.416Z,32.14
2019-05-01T12:02:13.877Z,31.64
2019-05-01T12:04:41.379Z,31.11
2019-05-01T12:07:08.882Z,30.99
2019-05-01T12:09:36.334Z,30.86
2019-05-01T12:12:03.795Z,29.94
2019-05-01T12:14:31.329Z,29.36
2019-05-01T12:16:59.351Z,28.98
2019-05-01T12:19:29.479Z,28.79
2019-05-01T12:21:56.954Z,28.51
2019-05-01T12:24:24.410Z,28.65
2019-05-01T12:26:51.908Z,28.74
2019-05-01T12:29:19.436Z,29.03
2019-05-01T12:31:46.927Z,29.57
2019-05-01T12:34:14.374Z,29.34
2019-05-01T12:36:41.841Z,29.18
2019-05-01T12:39:17.206Z,28.96
2019-05-01T12:41:46.580Z,28.77
2019-05-01T12:44:14.024Z,28.22
2019-05-01T12:46:56.257Z,28.26
2019-05-01T12:49:23.757Z,28.54
2019-05-01T12:51:51.255Z,27.97
2019-05-01T12:54:20.674Z,27.59
2019-05-01T12:56:50.029Z,27.29
2019-05-01T12:59:17.526Z,26.82
2019-05-01T13:01:45.034Z,26.83
2019-05-01T13:04:12.508Z,26.89
2019-05-01T13:06:49.098Z,28.05
2019-05-01T13:09:07.451Z,28.07
2019-05-01T13:11:34.919Z,27.00
2019-05-01T13:14:02.372Z,26.58
2019-05-01T13:16:29.848Z,26.26
2019-05-01T13:18:57.314Z,26.91
2019-05-01T13:21:25.220Z,27.63
2019-05-01T13:23:52.678Z,27.98
2019-05-01T13:26:20.156Z,27.74
2019-05-01T13:28:49.050Z,27.77
2019-05-01T13:31:17.991Z,28.78
2019-05-01T13:33:45.458Z,28.86
2019-05-01T13:36:12.927Z,29.17
2019-05-01T13:38:40.416Z,28.50
2019-05-01T13:41:07.878Z,29.15
2019-05-01T13:43:35.329Z,29.03
2019-05-01T13:46:02.785Z,28.39
2019-05-01T13:48:30.255Z,27.62
2019-05-01T13:50:57.744Z,27.10
2019-05-01T13:53:25.202Z,26.42
2019-05-01T13:55:52.327Z,26.45
2019-05-01T13:58:19.373Z,26.43
2019-05-01T14:00:46.420Z,26.32
2019-05-01T14:03:14.926Z,25.78
2019-05-01T14:05:46.079Z,25.34
2019-05-01T14:08:13.242Z,25.42
2019-05-01T14:10:43.712Z,25.39
2019-05-01T14:13:11.134Z,25.40
2019-05-01T14:15:38.558Z,25.62
2019-05-01T14:18:05.768Z,25.74
2019-05-01T14:20:38.387Z,25.72
2019-05-01T14:23:10.091Z,26.30
2019-05-01T14:25:43.028Z,26.85
2019-05-01T14:28:10.559Z,28.05
2019-05-01T14:30:37.582Z,27.66
2019-05-01T14:33:04.570Z,27.04
2019-05-01T14:35:31.603Z,26.97
2019-05-01T14:37:58.592Z,26.54
2019-05-01T14:40:25.599Z,25.70
2019-05-01T14:42:52.636Z,26.18
2019-05-01T14:45:19.939Z,26.43
2019-05-01T14:47:46.936Z,25.95
2019-05-01T14:50:14.089Z,25.04
2019-05-01T14:52:41.217Z,24.26
2019-05-01T14:55:08.259Z,23.97
2019-05-01T14:57:35.221Z,24.18
2019-05-01T15:00:02.219Z,24.25
2019-05-01T15:02:29.234Z,24.34
2019-05-01T15:04:56.206Z,24.24
2019-05-01T15:07:23.215Z,24.31
2019-05-01T15:09:50.719Z,24.07
2019-05-01T15:12:18.228Z,23.60
2019-05-01T15:14:49.316Z,22.76
2019-05-01T15:17:18.770Z,22.66
2019-05-01T15:19:47.943Z,21.75
2019-05-01T15:22:15.418Z,20.84
2019-05-01T15:24:43.083Z,20.21
2019-05-01T15:27:10.543Z,20.85
2019-05-01T15:29:38.390Z,20.64
2019-05-01T15:32:05.863Z,21.50
2019-05-01T15:34:33.331Z,21.82
2019-05-01T15:37:00.811Z,21.21
2019-05-01T15:39:30.220Z,22.00
2019-05-01T15:42:03.279Z,22.81
2019-05-01T15:44:30.744Z,23.44
2019-05-01T15:46:58.320Z,23.41
2019-05-01T15:49:25.783Z,23.94
2019-05-01T15:51:53.234Z,23.33
2019-05-01T15:54:20.681Z,23.00
2019-05-01T15:56:48.172Z,23.28
2019-05-01T15:59:15.660Z,23.69
2019-05-01T16:01:43.113Z,23.60
2019-05-01T16:04:10.578Z,24.14
2019-05-01T16:06:37.607Z,24.53
2019-05-01T16:09:05.223Z,24.78
2019-05-01T16:14:29.601Z,24.53
2019-05-01T16:16:56.613Z,24.82
2019-05-01T16:19:23.619Z,24.93
2019-05-01T16:21:50.639Z,24.79
2019-05-01T16:24:17.652Z,24.30
2019-05-01T16:26:44.645Z,24.31
2019-05-01T16:29:11.639Z,24.35
2019-05-01T16:31:38.644Z,24.16
2019-05-01T16:34:05.631Z,23.53
2019-05-01T16:36:32.848Z,23.35
2019-05-01T16:39:05.844Z,24.07
2019-05-01T16:41:32.909Z,24.40
2019-05-01T16:43:59.929Z,24.88
2019-05-01T16:46:26.932Z,25.29
2019-05-01T16:48:53.971Z,25.66
2019-05-01T16:51:21.077Z,26.10
2019-05-01T16:53:48.058Z,26.50
2019-05-01T16:56:15.054Z,26.77
2019-05-01T16:58:42.135Z,26.85
2019-05-01T17:01:09.130Z,26.88
2019-05-01T17:03:51.006Z,26.97
2019-05-01T17:06:23.236Z,27.48
2019-05-01T17:08:52.805Z,27.72
2019-05-01T17:11:19.802Z,27.39
2019-05-01T17:13:46.795Z,27.27
2019-05-01T17:16:13.785Z,27.29
2019-05-01T17:18:40.782Z,27.49
2019-05-01T17:21:07.784Z,27.78
2019-05-01T17:23:34.775Z,28.66
2019-05-01T17:26:01.791Z,29.40
2019-05-01T17:28:28.777Z,29.77
2019-05-01T17:30:55.822Z,30.35
2019-05-01T17:33:22.844Z,31.01
2019-05-01T17:35:49.845Z,31.70
2019-05-01T17:38:16.858Z,32.27
2019-05-01T17:40:47.361Z,32.68
2019-05-01T17:43:13.517Z,33.10
2019-05-01T17:45:37.970Z,33.78
2019-05-01T17:48:04.951Z,34.45
2019-05-01T17:50:32.414Z,35.08
2019-05-01T17:52:59.880Z,35.77
2019-05-01T17:55:26.974Z,35.95
2019-05-01T17:57:54.788Z,35.71
2019-05-01T18:00:37.424Z,35.42
2019-05-01T18:03:10.022Z,35.19
2019-05-01T18:05:42.323Z,35.36
2019-05-01T18:08:09.959Z,35.04
2019-05-01T18:10:39.704Z,35.95
2019-05-01T18:13:08.082Z,36.70
2019-05-01T18:15:38.702Z,37.05
2019-05-01T18:18:06.182Z,35.71
2019-05-01T18:20:41.452Z,34.73
2019-05-01T18:23:12.524Z,35.26
2019-05-01T18:25:42.126Z,35.53
2019-05-01T18:28:15.181Z,35.30
2019-05-01T18:30:42.822Z,34.77
2019-05-01T18:33:10.313Z,34.36
2019-05-01T18:35:37.788Z,34.36
2019-05-01T18:38:12.775Z,34.47
2019-05-01T18:40:38.608Z,34.53
2019-05-01T18:43:06.076Z,34.64
2019-05-01T18:48:27.189Z,34.62
2019-05-01T18:50:56.309Z,34.94
2019-05-01T18:53:22.387Z,35.34
2019-05-01T18:55:50.184Z,35.69
2019-05-01T18:58:17.844Z,36.00
2019-05-01T19:00:45.306Z,36.25
2019-05-01T19:03:12.815Z,36.56
2019-05-01T19:05:43.112Z,36.75
2019-05-01T19:08:07.820Z,36.92
2019-05-01T19:10:35.275Z,37.54
2019-05-01T19:13:02.758Z,38.32
2019-05-01T19:15:30.359Z,39.14
2019-05-01T19:17:57.833Z,40.08
2019-05-01T19:20:25.369Z,40.54
2019-05-01T19:22:52.826Z,40.47
2019-05-01T19:25:20.364Z,40.22
2019-05-01T19:27:47.873Z,40.59
2019-05-01T19:30:16.825Z,41.14
2019-05-01T19:32:42.822Z,41.76
2019-05-01T19:35:10.339Z,42.55
2019-05-01T19:37:37.817Z,43.00
2019-05-01T19:40:05.462Z,42.83
2019-05-01T19:42:32.918Z,42.62
2019-05-01T19:45:00.376Z,42.13
2019-05-01T19:47:27.936Z,41.71
2019-05-01T19:49:55.420Z,42.28
2019-05-01T19:52:22.970Z,43.25
2019-05-01T19:54:50.466Z,44.52
2019-05-01T19:57:17.926Z,44.65
2019-05-01T19:59:45.387Z,43.96
2019-05-01T20:02:12.889Z,44.41
2019-05-01T20:04:40.377Z,44.75
2019-05-01T20:07:10.543Z,44.54
2019-05-01T20:09:35.449Z,44.61
2019-05-01T20:12:02.887Z,45.08
2019-05-01T20:14:30.339Z,45.65
2019-05-01T20:16:57.868Z,45.88
2019-05-01T20:19:25.334Z,45.88
2019-05-01T20:21:52.843Z,45.96
2019-05-01T20:24:20.388Z,45.99
2019-05-01T20:26:49.827Z,46.93
2019-05-01T20:29:17.760Z,47.55
2019-05-01T20:31:45.733Z,47.71
2019-05-01T20:34:17.365Z,47.76
2019-05-01T20:36:39.739Z,46.87
2019-05-01T20:39:07.183Z,47.20
2019-05-01T20:41:34.644Z,47.45
2019-05-01T20:44:02.187Z,47.56
2019-05-01T20:46:29.767Z,47.11
2019-05-01T20:49:01.334Z,46.95
2019-05-01T20:51:25.637Z,47.29
2019-05-01T20:53:53.194Z,47.92
2019-05-01T20:56:23.565Z,48.57
2019-05-01T20:58:51.040Z,49.06
2019-05-01T21:01:18.495Z,49.38
2019-05-01T21:03:52.506Z,49.95
2019-05-01T21:06:19.041Z,49.98
2019-05-01T21:08:48.755Z,49.95
2019-05-01T21:11:16.620Z,50.20
2019-05-01T21:13:44.096Z,50.97
2019-05-01T21:16:11.760Z,50.94
2019-05-01T21:18:39.212Z,50.40
2019-05-01T21:21:06.680Z,50.72
2019-05-01T21:23:34.163Z,50.76
2019-05-01T21:26:03.733Z,51.16
2019-05-01T21:28:29.184Z,51.10
2019-05-01T21:30:56.629Z,51.34
2019-05-01T21:33:24.114Z,51.52
2019-05-01T21:35:53.307Z,51.89
2019-05-01T21:38:19.081Z,52.21
2019-05-01T21:40:46.584Z,52.30
2019-05-01T21:43:14.043Z,52.12
2019-05-01T21:45:43.237Z,51.95
2019-05-01T21:48:09.142Z,51.83
2019-05-01T21:50:36.611Z,51.95
2019-05-01T21:53:06.842Z,52.18
2019-05-01T21:55:32.081Z,52.26
2019-05-01T21:57:59.040Z,52.52
2019-05-01T22:00:26.546Z,52.67
2019-05-01T22:02:54.067Z,53.08
2019-05-01T22:05:21.538Z,53.47
2019-05-01T22:07:48.992Z,53.99
2019-05-01T22:10:16.469Z,54.63
2019-05-01T22:12:48.512Z,55.05
2019-05-01T22:15:14.117Z,55.61
2019-05-01T22:17:45.158Z,55.83
2019-05-01T22:20:13.083Z,56.00
2019-05-01T22:22:50.487Z,56.04
2019-05-01T22:25:20.399Z,56.15
2019-05-01T22:27:47.839Z,56.33
2019-05-01T22:30:20.820Z,56.35
2019-05-01T22:32:50.819Z,56.25
2019-05-01T22:35:18.260Z,56.21
2019-05-01T22:37:45.735Z,56.00
2019-05-01T22:40:13.203Z,56.05
2019-05-01T22:42:40.651Z,55.92
2019-05-01T22:45:08.115Z,55.73
2019-05-01T22:47:35.618Z,55.54
2019-05-01T22:50:03.094Z,55.59
2019-05-01T22:52:30.552Z,55.64
2019-05-01T22:54:57.990Z,55.91
2019-05-01T22:57:25.451Z,56.29
2019-05-01T22:59:52.944Z,56.71
2019-05-01T23:02:24.129Z,57.13
2019-05-01T23:04:52.049Z,57.49
2019-05-01T23:07:18.595Z,57.81
2019-05-01T23:09:44.886Z,57.95
2019-05-01T23:12:12.543Z,58.08
2019-05-01T23:14:40.326Z,58.21
2019-05-01T23:17:09.496Z,58.41
2019-05-01T23:19:37.129Z,58.54
2019-05-01T23:22:04.696Z,58.70
2019-05-01T23:24:32.204Z,58.83
2019-05-01T23:26:59.681Z,59.21
2019-05-01T23:29:27.177Z,59.68
2019-05-01T23:31:54.677Z,59.81
2019-05-01T23:34:26.248Z,59.92
2019-05-01T23:36:49.615Z,60.19
2019-05-01T23:39:17.073Z,60.68
2019-05-01T23:41:46.788Z,61.31
2019-05-01T23:44:12.018Z,61.45
2019-05-01T23:46:39.477Z,61.73
2019-05-01T23:49:06.943Z,61.66
2019-05-01T23:51:34.410Z,61.79
2019-05-01T23:54:01.865Z,62.12
2019-05-01T23:56:31.117Z,62.74
2019-05-01T23:58:56.797Z,62.98
